sensor_id;sensor_type;location;lat;lon;timestamp;noise_LAeq;noise_LA_min;noise_LA_max;noise_LA01;noise_LA95
11999;Laerm;40817;51.520;9.954;2022-12-18T00:01:39;42.95;39.21;45.48;;
11999;Laerm;40817;51.520;9.954;2022-12-18T00:04:15;44.74;40.53;51.42;;
11999;Laerm;40817;51.520;9.954;2022-12-18T00:06:45;44.22;41.38;47.00;;
11999;Laerm;40817;51.520;9.954;2022-12-18T00:09:14;43.52;39.70;45.91;;
11999;Laerm;40817;51.520;9.954;2022-12-18T00:11:43;44.03;39.92;51.08;;
11999;Laerm;40817;51.520;9.954;2022-12-18T00:14:13;43.88;39.46;53.96;;
11999;Laerm;40817;51.520;9.954;2022-12-18T00:16:44;42.43;38.05;45.14;;
11999;Laerm;40817;51.520;9.954;2022-12-18T00:19:14;43.14;39.81;45.69;;
11999;Laerm;40817;51.520;9.954;2022-12-18T00:21:43;46.22;40.63;55.18;;
11999;Laerm;40817;51.520;9.954;2022-12-18T00:24:11;44.17;41.22;49.55;;
11999;Laerm;40817;51.520;9.954;2022-12-18T00:26:39;43.32;39.81;45.36;;
11999;Laerm;40817;51.520;9.954;2022-12-18T00:29:13;42.92;39.58;45.07;;
11999;Laerm;40817;51.520;9.954;2022-12-18T00:31:41;43.93;39.34;55.03;;
11999;Laerm;40817;51.520;9.954;2022-12-18T00:34:12;43.20;39.46;45.83;;
11999;Laerm;40817;51.520;9.954;2022-12-18T00:36:40;42.73;38.67;45.07;;
11999;Laerm;40817;51.520;9.954;2022-12-18T00:39:10;42.75;39.21;45.23;;
11999;Laerm;40817;51.520;9.954;2022-12-18T00:41:38;42.73;39.34;45.14;;
11999;Laerm;40817;51.520;9.954;2022-12-18T00:44:25;42.70;39.21;45.17;;
11999;Laerm;40817;51.520;9.954;2022-12-18T00:46:52;43.03;39.08;45.86;;
11999;Laerm;40817;51.520;9.954;2022-12-18T00:49:20;42.99;39.92;45.17;;
11999;Laerm;40817;51.520;9.954;2022-12-18T00:51:49;42.73;39.46;45.11;;
11999;Laerm;40817;51.520;9.954;2022-12-18T00:54:17;43.37;39.92;46.33;;
11999;Laerm;40817;51.520;9.954;2022-12-18T00:56:45;42.91;39.70;46.05;;
11999;Laerm;40817;51.520;9.954;2022-12-18T00:59:13;42.76;39.34;45.33;;
11999;Laerm;40817;51.520;9.954;2022-12-18T01:01:42;42.75;39.92;45.01;;
11999;Laerm;40817;51.520;9.954;2022-12-18T01:04:09;42.50;39.34;44.73;;
11999;Laerm;40817;51.520;9.954;2022-12-18T01:06:37;42.54;39.81;45.83;;
11999;Laerm;40817;51.520;9.954;2022-12-18T01:09:05;42.73;39.46;44.76;;
11999;Laerm;40817;51.520;9.954;2022-12-18T01:11:33;43.50;38.52;46.55;;
11999;Laerm;40817;51.520;9.954;2022-12-18T01:14:01;43.75;40.43;46.38;;
11999;Laerm;40817;51.520;9.954;2022-12-18T01:16:28;43.28;39.70;48.69;;
11999;Laerm;40817;51.520;9.954;2022-12-18T01:18:58;44.55;40.79;54.29;;
11999;Laerm;40817;51.520;9.954;2022-12-18T01:21:26;42.94;37.70;45.57;;
11999;Laerm;40817;51.520;9.954;2022-12-18T01:23:55;45.12;41.14;53.12;;
11999;Laerm;40817;51.520;9.954;2022-12-18T01:26:26;43.43;40.23;46.23;;
11999;Laerm;40817;51.520;9.954;2022-12-18T01:28:56;42.77;39.21;47.83;;
11999;Laerm;40817;51.520;9.954;2022-12-18T01:31:27;42.82;39.21;61.45;;
11999;Laerm;40817;51.520;9.954;2022-12-18T01:34:00;43.16;39.81;61.52;;
11999;Laerm;40817;51.520;9.954;2022-12-18T01:36:31;42.44;39.21;45.31;;
11999;Laerm;40817;51.520;9.954;2022-12-18T01:39:01;44.35;40.23;48.70;;
11999;Laerm;40817;51.520;9.954;2022-12-18T01:41:32;43.49;40.33;45.45;;
11999;Laerm;40817;51.520;9.954;2022-12-18T01:45:02;43.24;39.70;45.60;;
11999;Laerm;40817;51.520;9.954;2022-12-18T01:47:36;42.67;38.81;48.74;;
11999;Laerm;40817;51.520;9.954;2022-12-18T01:50:11;42.78;38.67;45.27;;
11999;Laerm;40817;51.520;9.954;2022-12-18T01:52:42;42.59;38.95;44.97;;
11999;Laerm;40817;51.520;9.954;2022-12-18T01:55:14;42.74;38.99;52.51;;
11999;Laerm;40817;51.520;9.954;2022-12-18T01:57:42;42.10;38.21;45.51;;
11999;Laerm;40817;51.520;9.954;2022-12-18T02:00:16;42.22;37.88;44.73;;
11999;Laerm;40817;51.520;9.954;2022-12-18T02:02:46;42.66;39.34;55.31;;
11999;Laerm;40817;51.520;9.954;2022-12-18T02:05:20;42.48;37.52;44.51;;
11999;Laerm;40817;51.520;9.954;2022-12-18T02:08:01;42.48;38.52;44.54;;
11999;Laerm;40817;51.520;9.954;2022-12-18T02:10:51;42.08;38.05;44.11;;
11999;Laerm;40817;51.520;9.954;2022-12-18T02:13:32;42.36;38.52;44.58;;
11999;Laerm;40817;51.520;9.954;2022-12-18T02:16:10;42.44;37.52;44.97;;
11999;Laerm;40817;51.520;9.954;2022-12-18T02:18:48;42.64;39.21;45.30;;
11999;Laerm;40817;51.520;9.954;2022-12-18T02:21:32;44.60;40.03;50.62;;
11999;Laerm;40817;51.520;9.954;2022-12-18T02:24:23;43.92;40.89;48.73;;
11999;Laerm;40817;51.520;9.954;2022-12-18T02:26:58;43.42;39.46;45.94;;
11999;Laerm;40817;51.520;9.954;2022-12-18T02:29:34;42.58;38.67;45.07;;
11999;Laerm;40817;51.520;9.954;2022-12-18T02:32:12;43.13;40.13;46.52;;
11999;Laerm;40817;51.520;9.954;2022-12-18T02:34:41;44.27;39.08;51.43;;
11999;Laerm;40817;51.520;9.954;2022-12-18T02:37:15;42.71;38.95;45.07;;
11999;Laerm;40817;51.520;9.954;2022-12-18T02:39:47;43.17;38.95;67.37;;
11999;Laerm;40817;51.520;9.954;2022-12-18T02:42:18;41.98;38.52;56.90;;
11999;Laerm;40817;51.520;9.954;2022-12-18T02:44:49;42.68;39.08;44.97;;
11999;Laerm;40817;51.520;9.954;2022-12-18T02:47:20;42.27;38.52;49.64;;
11999;Laerm;40817;51.520;9.954;2022-12-18T02:49:59;42.02;38.37;44.58;;
11999;Laerm;40817;51.520;9.954;2022-12-18T02:52:44;41.99;38.05;44.19;;
11999;Laerm;40817;51.520;9.954;2022-12-18T02:55:31;42.25;37.32;44.83;;
11999;Laerm;40817;51.520;9.954;2022-12-18T02:58:14;43.90;39.34;47.16;;
11999;Laerm;40817;51.520;9.954;2022-12-18T03:00:51;43.81;40.23;46.20;;
11999;Laerm;40817;51.520;9.954;2022-12-18T03:03:25;42.77;37.88;45.27;;
11999;Laerm;40817;51.520;9.954;2022-12-18T03:06:03;42.34;39.08;44.31;;
11999;Laerm;40817;51.520;9.954;2022-12-18T03:08:39;42.78;39.23;44.97;;
11999;Laerm;40817;51.520;9.954;2022-12-18T03:11:10;42.39;37.88;44.49;;
11999;Laerm;40817;51.520;9.954;2022-12-18T03:13:45;42.94;38.67;50.04;;
11999;Laerm;40817;51.520;9.954;2022-12-18T03:16:19;43.02;39.58;45.54;;
11999;Laerm;40817;51.520;9.954;2022-12-18T03:18:54;43.76;40.03;49.53;;
11999;Laerm;40817;51.520;9.954;2022-12-18T03:21:29;42.87;39.70;45.45;;
11999;Laerm;40817;51.520;9.954;2022-12-18T03:24:01;42.76;39.58;44.58;;
11999;Laerm;40817;51.520;9.954;2022-12-18T03:26:31;42.55;39.21;44.47;;
11999;Laerm;40817;51.520;9.954;2022-12-18T03:29:07;42.83;39.70;45.63;;
11999;Laerm;40817;51.520;9.954;2022-12-18T03:31:41;43.21;40.03;46.93;;
11999;Laerm;40817;51.520;9.954;2022-12-18T03:34:17;42.77;39.08;45.20;;
11999;Laerm;40817;51.520;9.954;2022-12-18T03:36:46;42.85;38.67;45.07;;
11999;Laerm;40817;51.520;9.954;2022-12-18T03:39:14;42.80;39.34;44.80;;
11999;Laerm;40817;51.520;9.954;2022-12-18T03:41:47;43.64;40.03;50.76;;
11999;Laerm;40817;51.520;9.954;2022-12-18T03:44:26;45.48;40.80;54.90;;
11999;Laerm;40817;51.520;9.954;2022-12-18T03:47:04;43.66;40.53;46.07;;
11999;Laerm;40817;51.520;9.954;2022-12-18T03:49:38;42.94;39.21;45.20;;
11999;Laerm;40817;51.520;9.954;2022-12-18T03:52:15;42.64;39.21;45.04;;
11999;Laerm;40817;51.520;9.954;2022-12-18T03:54:46;42.43;39.08;46.78;;
11999;Laerm;40817;51.520;9.954;2022-12-18T03:57:19;42.53;38.95;45.27;;
11999;Laerm;40817;51.520;9.954;2022-12-18T03:59:54;42.48;38.52;52.04;;
11999;Laerm;40817;51.520;9.954;2022-12-18T04:02:24;42.53;38.81;44.94;;
11999;Laerm;40817;51.520;9.954;2022-12-18T04:05:13;43.35;39.70;46.18;;
11999;Laerm;40817;51.520;9.954;2022-12-18T04:08:01;42.66;39.46;45.36;;
11999;Laerm;40817;51.520;9.954;2022-12-18T04:10:49;42.87;37.52;46.13;;
11999;Laerm;40817;51.520;9.954;2022-12-18T04:13:38;43.77;40.13;46.55;;
11999;Laerm;40817;51.520;9.954;2022-12-18T04:16:27;43.46;40.13;45.51;;
11999;Laerm;40817;51.520;9.954;2022-12-18T04:19:15;43.39;40.80;45.20;;
11999;Laerm;40817;51.520;9.954;2022-12-18T04:21:43;43.41;40.43;46.10;;
11999;Laerm;40817;51.520;9.954;2022-12-18T04:24:12;43.14;40.62;48.81;;
11999;Laerm;40817;51.520;9.954;2022-12-18T04:26:39;42.98;40.43;44.94;;
11999;Laerm;40817;51.520;9.954;2022-12-18T04:29:07;43.08;40.03;47.46;;
11999;Laerm;40817;51.520;9.954;2022-12-18T04:31:36;43.19;40.13;44.94;;
11999;Laerm;40817;51.520;9.954;2022-12-18T04:34:03;43.16;40.33;46.87;;
11999;Laerm;40817;51.520;9.954;2022-12-18T04:36:31;43.53;40.53;46.05;;
11999;Laerm;40817;51.520;9.954;2022-12-18T04:38:59;45.40;41.53;55.51;;
11999;Laerm;40817;51.520;9.954;2022-12-18T04:41:27;43.38;39.46;46.38;;
11999;Laerm;40817;51.520;9.954;2022-12-18T04:43:54;43.56;40.62;45.69;;
11999;Laerm;40817;51.520;9.954;2022-12-18T04:46:22;42.92;38.81;45.04;;
11999;Laerm;40817;51.520;9.954;2022-12-18T04:48:51;42.70;39.34;44.90;;
11999;Laerm;40817;51.520;9.954;2022-12-18T04:51:18;42.72;39.34;46.18;;
11999;Laerm;40817;51.520;9.954;2022-12-18T04:53:46;42.81;39.70;45.42;;
11999;Laerm;40817;51.520;9.954;2022-12-18T04:56:15;42.63;39.46;44.76;;
11999;Laerm;40817;51.520;9.954;2022-12-18T04:58:44;42.47;39.46;44.76;;
11999;Laerm;40817;51.520;9.954;2022-12-18T05:01:16;42.36;38.95;45.48;;
11999;Laerm;40817;51.520;9.954;2022-12-18T05:03:45;42.58;38.95;44.69;;
11999;Laerm;40817;51.520;9.954;2022-12-18T05:06:14;42.59;38.81;44.62;;
11999;Laerm;40817;51.520;9.954;2022-12-18T05:08:41;43.03;39.21;46.15;;
11999;Laerm;40817;51.520;9.954;2022-12-18T05:11:12;43.65;39.34;47.88;;
11999;Laerm;40817;51.520;9.954;2022-12-18T05:13:43;43.49;40.13;50.01;;
11999;Laerm;40817;51.520;9.954;2022-12-18T05:16:12;42.95;39.21;45.42;;
11999;Laerm;40817;51.520;9.954;2022-12-18T05:18:41;43.10;39.21;45.27;;
11999;Laerm;40817;51.520;9.954;2022-12-18T05:21:09;44.50;40.36;53.86;;
11999;Laerm;40817;51.520;9.954;2022-12-18T05:23:38;43.53;39.92;45.89;;
11999;Laerm;40817;51.520;9.954;2022-12-18T05:26:07;43.36;39.21;46.66;;
11999;Laerm;40817;51.520;9.954;2022-12-18T05:28:36;43.02;39.70;45.91;;
11999;Laerm;40817;51.520;9.954;2022-12-18T05:31:13;44.95;39.34;68.94;;
11999;Laerm;40817;51.520;9.954;2022-12-18T05:33:41;42.89;39.46;49.94;;
11999;Laerm;40817;51.520;9.954;2022-12-18T05:36:10;43.15;40.03;45.54;;
11999;Laerm;40817;51.520;9.954;2022-12-18T05:38:43;42.95;40.23;45.01;;
11999;Laerm;40817;51.520;9.954;2022-12-18T05:41:11;43.21;39.81;45.20;;
11999;Laerm;40817;51.520;9.954;2022-12-18T05:43:40;43.63;40.43;46.18;;
11999;Laerm;40817;51.520;9.954;2022-12-18T05:46:12;43.17;38.95;45.69;;
11999;Laerm;40817;51.520;9.954;2022-12-18T05:48:41;42.93;40.13;45.23;;
11999;Laerm;40817;51.520;9.954;2022-12-18T05:51:12;43.59;40.13;47.63;;
11999;Laerm;40817;51.520;9.954;2022-12-18T05:53:43;44.41;41.22;48.91;;
11999;Laerm;40817;51.520;9.954;2022-12-18T05:56:15;46.88;40.71;73.12;;
11999;Laerm;40817;51.520;9.954;2022-12-18T05:58:43;43.27;40.03;45.33;;
11999;Laerm;40817;51.520;9.954;2022-12-18T06:01:16;44.29;39.46;73.39;;
11999;Laerm;40817;51.520;9.954;2022-12-18T06:03:44;43.18;40.13;59.48;;
11999;Laerm;40817;51.520;9.954;2022-12-18T06:06:16;43.30;40.23;45.75;;
11999;Laerm;40817;51.520;9.954;2022-12-18T06:08:47;43.17;38.67;45.83;;
11999;Laerm;40817;51.520;9.954;2022-12-18T06:11:18;42.61;38.67;44.69;;
11999;Laerm;40817;51.520;9.954;2022-12-18T06:13:50;43.06;39.68;51.29;;
11999;Laerm;40817;51.520;9.954;2022-12-18T06:16:18;44.11;40.53;50.50;;
11999;Laerm;40817;51.520;9.954;2022-12-18T06:18:46;44.06;39.70;48.83;;
11999;Laerm;40817;51.520;9.954;2022-12-18T06:21:28;43.38;39.70;48.70;;
11999;Laerm;40817;51.520;9.954;2022-12-18T06:23:57;42.55;39.34;45.01;;
11999;Laerm;40817;51.520;9.954;2022-12-18T06:26:25;42.97;39.58;48.73;;
11999;Laerm;40817;51.520;9.954;2022-12-18T06:28:53;44.18;39.81;50.06;;
11999;Laerm;40817;51.520;9.954;2022-12-18T06:31:20;43.08;39.08;51.18;;
11999;Laerm;40817;51.520;9.954;2022-12-18T06:33:48;43.98;40.13;59.03;;
11999;Laerm;40817;51.520;9.954;2022-12-18T06:36:16;42.63;39.08;44.76;;
11999;Laerm;40817;51.520;9.954;2022-12-18T06:38:44;42.90;39.46;48.37;;
11999;Laerm;40817;51.520;9.954;2022-12-18T06:41:26;43.47;39.92;51.67;;
11999;Laerm;40817;51.520;9.954;2022-12-18T06:43:54;43.14;39.81;53.94;;
11999;Laerm;40817;51.520;9.954;2022-12-18T06:46:21;43.99;39.58;59.53;;
11999;Laerm;40817;51.520;9.954;2022-12-18T06:48:50;43.45;39.70;53.15;;
11999;Laerm;40817;51.520;9.954;2022-12-18T06:51:19;43.53;40.23;56.80;;
11999;Laerm;40817;51.520;9.954;2022-12-18T06:53:48;43.85;40.80;56.35;;
11999;Laerm;40817;51.520;9.954;2022-12-18T06:56:16;43.33;40.13;46.07;;
11999;Laerm;40817;51.520;9.954;2022-12-18T06:58:45;43.46;40.43;46.89;;
11999;Laerm;40817;51.520;9.954;2022-12-18T07:01:13;43.02;39.92;45.14;;
11999;Laerm;40817;51.520;9.954;2022-12-18T07:03:41;43.27;40.33;51.67;;
11999;Laerm;40817;51.520;9.954;2022-12-18T07:06:15;43.07;39.34;45.69;;
11999;Laerm;40817;51.520;9.954;2022-12-18T07:08:43;43.28;39.92;51.20;;
11999;Laerm;40817;51.520;9.954;2022-12-18T07:11:11;43.95;40.43;49.29;;
11999;Laerm;40817;51.520;9.954;2022-12-18T07:13:39;43.42;40.71;45.36;;
11999;Laerm;40817;51.520;9.954;2022-12-18T07:16:12;43.83;40.03;56.76;;
11999;Laerm;40817;51.520;9.954;2022-12-18T07:18:41;43.45;39.46;47.08;;
11999;Laerm;40817;51.520;9.954;2022-12-18T07:21:12;43.69;40.43;51.40;;
11999;Laerm;40817;51.520;9.954;2022-12-18T07:23:41;43.40;40.13;46.89;;
11999;Laerm;40817;51.520;9.954;2022-12-18T07:26:12;43.65;40.33;55.65;;
11999;Laerm;40817;51.520;9.954;2022-12-18T07:28:43;43.58;40.13;46.28;;
11999;Laerm;40817;51.520;9.954;2022-12-18T07:31:15;43.29;39.70;44.87;;
11999;Laerm;40817;51.520;9.954;2022-12-18T07:33:44;43.73;40.71;53.44;;
11999;Laerm;40817;51.520;9.954;2022-12-18T07:36:12;43.53;40.62;45.51;;
11999;Laerm;40817;51.520;9.954;2022-12-18T07:38:40;43.62;40.43;45.75;;
11999;Laerm;40817;51.520;9.954;2022-12-18T07:41:12;44.19;41.38;50.56;;
11999;Laerm;40817;51.520;9.954;2022-12-18T07:43:41;44.81;41.06;58.57;;
11999;Laerm;40817;51.520;9.954;2022-12-18T07:46:11;43.95;40.71;55.08;;
11999;Laerm;40817;51.520;9.954;2022-12-18T07:48:40;44.42;40.53;54.64;;
11999;Laerm;40817;51.520;9.954;2022-12-18T07:51:09;43.73;39.58;46.48;;
11999;Laerm;40817;51.520;9.954;2022-12-18T07:53:37;43.14;39.21;45.97;;
11999;Laerm;40817;51.520;9.954;2022-12-18T07:56:08;43.28;39.21;48.23;;
11999;Laerm;40817;51.520;9.954;2022-12-18T07:58:37;43.64;40.23;50.65;;
11999;Laerm;40817;51.520;9.954;2022-12-18T08:01:06;43.53;39.92;49.69;;
11999;Laerm;40817;51.520;9.954;2022-12-18T08:03:37;43.36;40.80;46.10;;
11999;Laerm;40817;51.520;9.954;2022-12-18T08:06:08;44.24;40.71;57.99;;
11999;Laerm;40817;51.520;9.954;2022-12-18T08:08:36;43.85;40.98;56.59;;
11999;Laerm;40817;51.520;9.954;2022-12-18T08:11:04;44.05;40.88;46.69;;
11999;Laerm;40817;51.520;9.954;2022-12-18T08:13:32;44.24;41.53;48.66;;
11999;Laerm;40817;51.520;9.954;2022-12-18T08:16:02;49.33;41.30;60.81;;
11999;Laerm;40817;51.520;9.954;2022-12-18T08:18:31;55.42;43.77;62.44;;
11999;Laerm;40817;51.520;9.954;2022-12-18T08:21:08;51.86;42.03;60.00;;
11999;Laerm;40817;51.520;9.954;2022-12-18T08:23:36;43.77;40.71;45.91;;
11999;Laerm;40817;51.520;9.954;2022-12-18T08:26:04;44.46;41.46;48.54;;
11999;Laerm;40817;51.520;9.954;2022-12-18T08:28:32;43.69;39.46;47.88;;
11999;Laerm;40817;51.520;9.954;2022-12-18T08:31:00;52.50;40.71;63.34;;
11999;Laerm;40817;51.520;9.954;2022-12-18T08:33:28;55.56;41.96;63.83;;
11999;Laerm;40817;51.520;9.954;2022-12-18T08:35:55;45.39;40.89;52.36;;
11999;Laerm;40817;51.520;9.954;2022-12-18T08:38:24;44.28;39.81;52.11;;
11999;Laerm;40817;51.520;9.954;2022-12-18T08:40:58;44.01;40.71;54.84;;
11999;Laerm;40817;51.520;9.954;2022-12-18T08:43:27;44.04;41.22;49.88;;
11999;Laerm;40817;51.520;9.954;2022-12-18T08:46:12;45.74;40.71;65.26;;
11999;Laerm;40817;51.520;9.954;2022-12-18T08:48:40;44.14;41.46;52.83;;
11999;Laerm;40817;51.520;9.954;2022-12-18T08:51:08;44.75;41.38;53.34;;
11999;Laerm;40817;51.520;9.954;2022-12-18T08:53:38;47.33;42.76;60.15;;
11999;Laerm;40817;51.520;9.954;2022-12-18T08:56:07;53.10;42.53;62.00;;
11999;Laerm;40817;51.520;9.954;2022-12-18T08:58:34;56.30;46.64;63.03;;
11999;Laerm;40817;51.520;9.954;2022-12-18T09:01:04;54.53;41.41;62.76;;
11999;Laerm;40817;51.520;9.954;2022-12-18T09:03:32;44.49;41.30;56.71;;
11999;Laerm;40817;51.520;9.954;2022-12-18T09:06:00;55.47;42.16;72.50;;
11999;Laerm;40817;51.520;9.954;2022-12-18T09:08:28;58.01;41.30;79.60;;
11999;Laerm;40817;51.520;9.954;2022-12-18T09:10:57;45.71;40.53;58.70;;
11999;Laerm;40817;51.520;9.954;2022-12-18T09:13:25;44.75;40.98;54.69;;
11999;Laerm;40817;51.520;9.954;2022-12-18T09:15:55;44.45;41.61;55.14;;
11999;Laerm;40817;51.520;9.954;2022-12-18T09:18:24;44.15;41.22;52.50;;
11999;Laerm;40817;51.520;9.954;2022-12-18T09:20:51;44.16;41.38;55.41;;
11999;Laerm;40817;51.520;9.954;2022-12-18T09:23:19;45.18;41.22;54.07;;
11999;Laerm;40817;51.520;9.954;2022-12-18T09:25:47;48.69;43.04;57.84;;
11999;Laerm;40817;51.520;9.954;2022-12-18T09:28:18;44.53;42.03;48.25;;
11999;Laerm;40817;51.520;9.954;2022-12-18T09:30:49;44.29;41.46;47.32;;
11999;Laerm;40817;51.520;9.954;2022-12-18T09:33:17;45.23;42.64;52.01;;
11999;Laerm;40817;51.520;9.954;2022-12-18T09:35:45;44.21;41.14;49.39;;
11999;Laerm;40817;51.520;9.954;2022-12-18T09:38:16;44.36;41.75;55.97;;
11999;Laerm;40817;51.520;9.954;2022-12-18T09:40:51;49.46;41.38;60.71;;
11999;Laerm;40817;51.520;9.954;2022-12-18T09:43:28;44.36;39.08;51.89;;
11999;Laerm;40817;51.520;9.954;2022-12-18T09:46:01;44.64;42.03;62.07;;
11999;Laerm;40817;51.520;9.954;2022-12-18T09:48:36;44.55;42.16;56.91;;
11999;Laerm;40817;51.520;9.954;2022-12-18T09:51:14;44.64;41.89;49.52;;
11999;Laerm;40817;51.520;9.954;2022-12-18T09:53:50;51.44;42.29;62.52;;
11999;Laerm;40817;51.520;9.954;2022-12-18T09:56:20;45.12;42.03;64.55;;
11999;Laerm;40817;51.520;9.954;2022-12-18T09:59:00;45.26;41.46;63.07;;
11999;Laerm;40817;51.520;9.954;2022-12-18T10:01:29;44.70;41.46;59.68;;
11999;Laerm;40817;51.520;9.954;2022-12-18T10:03:57;44.29;40.80;51.30;;
11999;Laerm;40817;51.520;9.954;2022-12-18T10:06:35;44.60;41.61;53.82;;
11999;Laerm;40817;51.520;9.954;2022-12-18T10:09:19;44.83;41.68;53.70;;
11999;Laerm;40817;51.520;9.954;2022-12-18T10:12:00;44.46;40.80;50.21;;
11999;Laerm;40817;51.520;9.954;2022-12-18T10:14:43;44.35;41.53;50.89;;
11999;Laerm;40817;51.520;9.954;2022-12-18T10:17:23;44.10;40.33;48.34;;
11999;Laerm;40817;51.520;9.954;2022-12-18T10:19:58;44.41;40.71;54.25;;
11999;Laerm;40817;51.520;9.954;2022-12-18T10:22:43;46.52;40.89;64.61;;
11999;Laerm;40817;51.520;9.954;2022-12-18T10:25:22;44.29;40.71;53.89;;
11999;Laerm;40817;51.520;9.954;2022-12-18T10:27:56;44.24;41.22;49.21;;
11999;Laerm;40817;51.520;9.954;2022-12-18T10:30:26;45.82;42.16;63.57;;
11999;Laerm;40817;51.520;9.954;2022-12-18T10:32:53;44.09;40.13;56.57;;
11999;Laerm;40817;51.520;9.954;2022-12-18T10:35:25;44.88;40.27;59.88;;
11999;Laerm;40817;51.520;9.954;2022-12-18T10:38:06;44.97;40.80;59.76;;
11999;Laerm;40817;51.520;9.954;2022-12-18T10:40:53;44.26;40.71;55.85;;
11999;Laerm;40817;51.520;9.954;2022-12-18T10:43:26;44.05;40.89;47.22;;
11999;Laerm;40817;51.520;9.954;2022-12-18T10:46:15;49.03;41.61;58.60;;
11999;Laerm;40817;51.520;9.954;2022-12-18T10:48:56;54.31;43.63;62.39;;
11999;Laerm;40817;51.520;9.954;2022-12-18T10:51:28;52.12;40.89;61.90;;
11999;Laerm;40817;51.520;9.954;2022-12-18T10:53:59;44.75;42.35;50.98;;
11999;Laerm;40817;51.520;9.954;2022-12-18T10:56:30;44.68;41.14;54.33;;
11999;Laerm;40817;51.520;9.954;2022-12-18T10:59:02;44.91;40.62;65.69;;
11999;Laerm;40817;51.520;9.954;2022-12-18T11:01:48;53.85;41.68;63.13;;
11999;Laerm;40817;51.520;9.954;2022-12-18T11:04:21;65.36;42.22;100.23;;
11999;Laerm;40817;51.520;9.954;2022-12-18T11:06:59;45.59;41.75;63.32;;
11999;Laerm;40817;51.520;9.954;2022-12-18T11:09:28;44.55;42.03;48.37;;
11999;Laerm;40817;51.520;9.954;2022-12-18T11:12:16;49.23;41.30;83.90;;
11999;Laerm;40817;51.520;9.954;2022-12-18T11:14:48;44.60;40.98;50.60;;
11999;Laerm;40817;51.520;9.954;2022-12-18T11:17:25;44.72;40.71;64.83;;
11999;Laerm;40817;51.520;9.954;2022-12-18T11:19:57;44.38;41.06;56.68;;
11999;Laerm;40817;51.520;9.954;2022-12-18T11:22:27;44.33;40.62;51.08;;
11999;Laerm;40817;51.520;9.954;2022-12-18T11:24:59;44.97;41.82;57.67;;
11999;Laerm;40817;51.520;9.954;2022-12-18T11:27:28;48.00;42.76;58.22;;
11999;Laerm;40817;51.520;9.954;2022-12-18T11:30:09;48.01;42.35;61.70;;
11999;Laerm;40817;51.520;9.954;2022-12-18T11:32:40;45.46;42.03;69.08;;
11999;Laerm;40817;51.520;9.954;2022-12-18T11:35:19;44.41;40.23;52.80;;
11999;Laerm;40817;51.520;9.954;2022-12-18T11:37:50;45.64;41.22;62.21;;
11999;Laerm;40817;51.520;9.954;2022-12-18T11:40:35;46.14;41.89;68.81;;
11999;Laerm;40817;51.520;9.954;2022-12-18T11:43:10;44.95;41.53;54.88;;
11999;Laerm;40817;51.520;9.954;2022-12-18T11:45:47;44.73;41.61;55.75;;
11999;Laerm;40817;51.520;9.954;2022-12-18T11:48:22;44.44;40.88;65.22;;
11999;Laerm;40817;51.520;9.954;2022-12-18T11:50:53;44.40;41.06;53.74;;
11999;Laerm;40817;51.520;9.954;2022-12-18T11:53:23;45.79;41.38;65.80;;
11999;Laerm;40817;51.520;9.954;2022-12-18T11:56:04;44.66;40.03;65.86;;
11999;Laerm;40817;51.520;9.954;2022-12-18T11:58:47;44.28;40.53;62.32;;
11999;Laerm;40817;51.520;9.954;2022-12-18T12:01:31;44.27;41.06;49.73;;
11999;Laerm;40817;51.520;9.954;2022-12-18T12:04:45;45.33;41.75;63.79;;
11999;Laerm;40817;51.520;9.954;2022-12-18T12:07:34;44.98;41.75;60.86;;
11999;Laerm;40817;51.520;9.954;2022-12-18T12:10:22;45.03;41.75;58.94;;
11999;Laerm;40817;51.520;9.954;2022-12-18T12:13:10;44.58;41.38;56.14;;
11999;Laerm;40817;51.520;9.954;2022-12-18T12:15:50;44.65;41.53;52.86;;
11999;Laerm;40817;51.520;9.954;2022-12-18T12:18:35;45.10;40.71;60.35;;
11999;Laerm;40817;51.520;9.954;2022-12-18T12:21:17;44.46;41.82;53.49;;
11999;Laerm;40817;51.520;9.954;2022-12-18T12:23:55;44.98;41.38;56.24;;
11999;Laerm;40817;51.520;9.954;2022-12-18T12:26:38;48.61;42.09;59.45;;
11999;Laerm;40817;51.520;9.954;2022-12-18T12:29:38;45.50;41.89;59.68;;
11999;Laerm;40817;51.520;9.954;2022-12-18T12:32:26;44.79;42.09;53.82;;
11999;Laerm;40817;51.520;9.954;2022-12-18T12:35:18;54.87;41.61;70.66;;
11999;Laerm;40817;51.520;9.954;2022-12-18T12:38:05;48.96;41.30;67.63;;
11999;Laerm;40817;51.520;9.954;2022-12-18T12:40:41;44.86;40.98;53.87;;
11999;Laerm;40817;51.520;9.954;2022-12-18T12:43:24;44.83;41.75;52.26;;
11999;Laerm;40817;51.520;9.954;2022-12-18T12:45:57;44.64;41.68;48.66;;
11999;Laerm;40817;51.520;9.954;2022-12-18T12:48:42;44.91;40.53;51.24;;
11999;Laerm;40817;51.520;9.954;2022-12-18T12:51:19;44.34;41.68;53.23;;
11999;Laerm;40817;51.520;9.954;2022-12-18T12:53:50;44.72;41.82;47.70;;
11999;Laerm;40817;51.520;9.954;2022-12-18T12:56:20;45.01;40.62;53.51;;
11999;Laerm;40817;51.520;9.954;2022-12-18T12:58:59;44.71;41.22;56.63;;
11999;Laerm;40817;51.520;9.954;2022-12-18T13:01:37;44.21;41.68;48.20;;
11999;Laerm;40817;51.520;9.954;2022-12-18T13:04:21;44.23;41.30;47.84;;
11999;Laerm;40817;51.520;9.954;2022-12-18T13:06:57;44.44;41.53;53.67;;
11999;Laerm;40817;51.520;9.954;2022-12-18T13:09:31;45.35;41.82;61.21;;
11999;Laerm;40817;51.520;9.954;2022-12-18T13:12:04;45.29;41.75;56.92;;
11999;Laerm;40817;51.520;9.954;2022-12-18T13:15:13;45.01;41.06;58.60;;
11999;Laerm;40817;51.520;9.954;2022-12-18T13:17:48;45.51;41.75;63.25;;
11999;Laerm;40817;51.520;9.954;2022-12-18T13:20:16;46.68;42.65;66.35;;
11999;Laerm;40817;51.520;9.954;2022-12-18T13:22:48;44.72;40.98;49.88;;
11999;Laerm;40817;51.520;9.954;2022-12-18T13:25:33;45.14;41.38;56.27;;
11999;Laerm;40817;51.520;9.954;2022-12-18T13:28:14;47.34;40.98;72.61;;
11999;Laerm;40817;51.520;9.954;2022-12-18T13:30:57;44.51;40.98;56.95;;
11999;Laerm;40817;51.520;9.954;2022-12-18T13:33:43;44.42;41.75;49.46;;
11999;Laerm;40817;51.520;9.954;2022-12-18T13:36:33;44.40;41.82;47.12;;
11999;Laerm;40817;51.520;9.954;2022-12-18T13:39:34;44.36;40.89;49.64;;
11999;Laerm;40817;51.520;9.954;2022-12-18T13:42:43;44.63;41.89;49.04;;
11999;Laerm;40817;51.520;9.954;2022-12-18T13:45:45;44.75;41.38;50.92;;
11999;Laerm;40817;51.520;9.954;2022-12-18T13:48:23;45.75;42.22;61.99;;
11999;Laerm;40817;51.520;9.954;2022-12-18T13:51:10;46.74;41.82;62.88;;
11999;Laerm;40817;51.520;9.954;2022-12-18T13:53:46;45.24;41.38;56.26;;
11999;Laerm;40817;51.520;9.954;2022-12-18T13:56:22;45.28;41.82;58.50;;
11999;Laerm;40817;51.520;9.954;2022-12-18T13:59:16;44.61;40.23;62.50;;
11999;Laerm;40817;51.520;9.954;2022-12-18T14:01:53;46.54;39.21;66.63;;
11999;Laerm;40817;51.520;9.954;2022-12-18T14:04:26;44.45;39.34;52.53;;
11999;Laerm;40817;51.520;9.954;2022-12-18T14:07:01;44.34;41.89;51.27;;
11999;Laerm;40817;51.520;9.954;2022-12-18T14:09:36;44.28;41.53;49.62;;
11999;Laerm;40817;51.520;9.954;2022-12-18T14:12:24;44.39;41.46;51.67;;
11999;Laerm;40817;51.520;9.954;2022-12-18T14:15:24;44.62;41.46;50.17;;
11999;Laerm;40817;51.520;9.954;2022-12-18T14:18:00;45.19;42.16;52.89;;
11999;Laerm;40817;51.520;9.954;2022-12-18T14:20:33;47.18;41.89;63.03;;
11999;Laerm;40817;51.520;9.954;2022-12-18T14:23:03;45.53;41.94;59.34;;